Time;durP1;ratioP1;P1;durP2;ratioP2;P2;SDS_P1;SDS_P2;PMS_P1;PMS_P2;Temp;Humidity;BMP_temperature;BMP_pressure;BME280_temperature;BME280_humidity;BME280_pressure;Samples;Min_cycle;Max_cycle;Signal;HPM_P1;HPM_P2
2022/10/02 00:00:17;;;;;;;6.38;2.10;;;16.90;99.90;;;;;;1031890;28;20010;-68
2022/10/02 00:00:50;;;;;;;5.97;2.50;;;16.90;99.90;;;;;;1035584;28;20030;-69
2022/10/02 00:01:46;;;;;;;6.90;1.83;;;16.90;99.90;;;;;;1034827;28;20021;-69
2022/10/02 00:02:39;;;;;;;11.35;2.72;;;16.90;99.90;;;;;;1031680;28;20032;-68
2022/10/02 00:03:17;;;;;;;4.10;1.50;;;16.90;99.90;;;;;;1036163;28;20833;-69
2022/10/02 00:03:48;;;;;;;4.60;1.38;;;16.90;99.90;;;;;;1038918;28;20116;-69
2022/10/02 00:04:27;;;;;;;2.83;1.60;;;16.90;99.90;;;;;;1038501;28;20025;-69
2022/10/02 00:05:09;;;;;;;5.13;1.83;;;16.90;99.90;;;;;;1036252;28;20455;-69
2022/10/02 00:05:48;;;;;;;5.50;1.88;;;16.90;99.90;;;;;;1032778;28;20098;-68
2022/10/02 00:06:22;;;;;;;4.25;1.85;;;16.90;99.90;;;;;;1035174;28;20014;-68
2022/10/02 00:06:57;;;;;;;7.28;1.70;;;16.90;99.90;;;;;;1034775;28;20010;-69
2022/10/02 00:07:34;;;;;;;4.93;1.75;;;16.90;99.90;;;;;;1036497;28;20076;-69
2022/10/02 00:08:12;;;;;;;3.72;1.30;;;16.90;99.90;;;;;;1037594;28;20107;-69
2022/10/02 00:08:44;;;;;;;;;;;16.90;99.90;;;;;;1034576;28;20021;-69
2022/10/02 00:09:22;;;;;;;5.18;2.25;;;16.90;99.90;;;;;;1037389;28;20172;-69
2022/10/02 00:09:57;;;;;;;5.07;2.03;;;16.90;99.90;;;;;;1032470;28;20110;-69
2022/10/02 00:10:40;;;;;;;4.95;1.38;;;16.90;99.90;;;;;;1034806;28;20014;-69
2022/10/02 00:11:42;;;;;;;5.20;2.00;;;16.90;99.90;;;;;;1034848;28;20022;-70
2022/10/02 00:12:19;;;;;;;4.72;1.58;;;16.90;99.90;;;;;;1033471;28;20496;-69
2022/10/02 00:12:55;;;;;;;5.38;1.50;;;16.90;99.90;;;;;;1040227;28;20025;-69
2022/10/02 00:13:38;;;;;;;3.30;1.40;;;16.90;99.90;;;;;;1038185;28;20014;-70
2022/10/02 00:14:14;;;;;;;3.58;1.50;;;16.90;99.90;;;;;;1037641;28;20076;-70
2022/10/02 00:14:49;;;;;;;5.22;1.40;;;16.90;99.90;;;;;;1035897;28;20104;-69
2022/10/02 00:15:25;;;;;;;5.57;2.10;;;16.90;99.90;;;;;;1034809;28;20020;-69
2022/10/02 00:15:55;;;;;;;3.83;1.42;;;16.90;99.90;;;;;;1041447;28;20112;-69
2022/10/02 00:16:50;;;;;;;3.63;2.07;;;16.90;99.90;;;;;;1038203;28;20037;-70
2022/10/02 00:17:43;;;;;;;3.65;1.42;;;16.90;99.90;;;;;;1036668;28;20021;-70
2022/10/02 00:18:22;;;;;;;4.38;1.33;;;16.90;99.90;;;;;;1036304;28;20018;-69
2022/10/02 00:18:54;;;;;;;3.83;1.52;;;16.90;99.90;;;;;;1030917;28;20023;-69
2022/10/02 00:19:26;;;;;;;5.20;1.73;;;16.90;99.90;;;;;;1030610;28;20491;-69
2022/10/02 00:19:56;;;;;;;3.53;1.55;;;16.90;99.90;;;;;;1031659;28;20068;-68
2022/10/02 00:20:37;;;;;;;3.90;1.80;;;16.90;99.90;;;;;;1030793;28;20093;-69
2022/10/02 00:21:16;;;;;;;3.80;2.00;;;16.90;99.90;;;;;;1034884;28;20022;-69
2022/10/02 00:21:50;;;;;;;3.85;1.67;;;16.90;99.90;;;;;;1034916;28;20068;-69
2022/10/02 00:22:31;;;;;;;5.80;1.73;;;16.80;99.90;;;;;;1035340;28;20021;-68
2022/10/02 00:23:20;;;;;;;4.60;1.50;;;16.80;99.90;;;;;;1036043;28;20492;-69
2022/10/02 00:23:55;;;;;;;6.75;1.88;;;16.80;99.90;;;;;;1038115;28;20017;-69
2022/10/02 00:24:37;;;;;;;3.95;1.58;;;16.80;99.90;;;;;;1037524;28;20028;-69
2022/10/02 00:25:41;;;;;;;6.03;1.48;;;16.90;99.90;;;;;;1030454;28;20389;-69
2022/10/02 00:26:42;;;;;;;3.88;1.48;;;16.80;99.90;;;;;;1034765;28;20014;-69
2022/10/02 00:27:40;;;;;;;5.18;1.73;;;16.80;99.90;;;;;;1032022;28;20022;-69
2022/10/02 00:28:27;;;;;;;4.43;1.70;;;16.80;99.90;;;;;;1034552;28;20029;-70
2022/10/02 00:29:18;;;;;;;5.85;1.88;;;16.80;99.90;;;;;;1035211;28;20018;-69
2022/10/02 00:29:56;;;;;;;3.95;1.40;;;16.80;99.90;;;;;;1033768;28;20061;-68
2022/10/02 00:30:32;;;;;;;3.22;1.48;;;16.80;99.90;;;;;;1035524;28;20014;-70
2022/10/02 00:31:32;;;;;;;2.92;1.40;;;16.80;99.90;;;;;;1033270;28;20010;-68
2022/10/02 00:32:26;;;;;;;4.40;1.65;;;16.80;99.90;;;;;;1033192;28;20022;-69
2022/10/02 00:32:57;;;;;;;4.68;1.60;;;16.70;99.90;;;;;;1035127;28;20014;-69
2022/10/02 00:33:45;;;;;;;3.27;1.33;;;16.80;99.90;;;;;;1036939;28;20017;-68
2022/10/02 00:34:57;;;;;;;4.07;1.52;;;16.80;99.90;;;;;;1038439;28;20539;-69
2022/10/02 00:35:39;;;;;;;2.53;1.42;;;16.70;99.90;;;;;;1041839;28;20028;-69
2022/10/02 00:36:14;;;;;;;5.45;1.58;;;16.70;99.90;;;;;;1036470;28;20018;-68
2022/10/02 00:37:04;;;;;;;3.33;1.40;;;16.70;99.90;;;;;;1038177;28;20022;-69
2022/10/02 00:37:55;;;;;;;3.45;1.30;;;16.70;99.90;;;;;;1037913;28;20021;-68
2022/10/02 00:38:46;;;;;;;4.25;1.55;;;16.70;99.90;;;;;;1038077;28;20021;-69
2022/10/02 00:39:43;;;;;;;2.95;1.25;;;16.70;99.90;;;;;;1038546;28;20104;-70
2022/10/02 00:40:32;;;;;;;2.63;1.17;;;16.70;99.90;;;;;;1036820;28;20938;-68
2022/10/02 00:41:44;;;;;;;3.67;1.35;;;16.70;99.90;;;;;;1035606;28;20048;-68
2022/10/02 00:42:39;;;;;;;3.08;1.02;;;16.70;99.90;;;;;;1031991;28;20105;-69
2022/10/02 00:43:35;;;;;;;3.10;1.20;;;16.70;99.90;;;;;;1036347;28;20061;-70
2022/10/02 00:44:20;;;;;;;2.70;1.35;;;16.70;99.90;;;;;;1038632;28;20133;-68
2022/10/02 00:45:16;;;;;;;3.92;1.38;;;16.70;99.90;;;;;;1035161;28;20026;-70
2022/10/02 00:46:01;;;;;;;4.18;1.40;;;16.70;99.90;;;;;;1033252;28;20022;-69
2022/10/02 00:46:40;;;;;;;5.45;1.70;;;16.70;99.90;;;;;;1032424;28;20021;-70
2022/10/02 00:47:52;;;;;;;3.55;1.38;;;16.70;99.90;;;;;;1034913;28;20028;-70
2022/10/02 00:48:49;;;;;;;2.40;1.10;;;16.70;99.90;;;;;;1038054;28;20032;-69
2022/10/02 00:49:52;;;;;;;2.33;1.30;;;16.70;99.90;;;;;;1036334;28;20117;-70
2022/10/02 00:50:34;;;;;;;3.63;1.65;;;16.70;99.90;;;;;;1034780;28;20022;-70
2022/10/02 00:51:32;;;;;;;4.03;1.10;;;16.70;99.90;;;;;;1033316;28;20488;-70
2022/10/02 00:52:10;;;;;;;2.72;1.20;;;16.70;99.90;;;;;;1033349;28;20100;-70
2022/10/02 00:53:12;;;;;;;3.67;1.02;;;16.70;99.90;;;;;;1032946;28;20101;-70
2022/10/02 00:53:58;;;;;;;3.55;1.40;;;16.70;99.90;;;;;;1037285;28;20072;-70
2022/10/02 00:54:56;;;;;;;3.22;1.38;;;16.60;99.90;;;;;;1032919;28;20084;-70
2022/10/02 00:55:50;;;;;;;3.97;1.48;;;16.60;99.90;;;;;;1033847;28;20037;-69
2022/10/02 00:56:55;;;;;;;2.65;1.25;;;16.60;99.90;;;;;;1035766;28;20026;-69
2022/10/02 00:57:34;;;;;;;3.92;1.58;;;16.60;99.90;;;;;;1033544;28;20041;-70
2022/10/02 00:58:26;;;;;;;2.33;1.25;;;16.60;99.90;;;;;;1035907;28;20144;-70
2022/10/02 00:59:24;;;;;;;4.35;1.45;;;16.60;99.90;;;;;;1037771;28;20033;-70
2022/10/02 01:00:02;;;;;;;3.38;1.55;;;16.60;99.90;;;;;;1033437;28;20017;-70
2022/10/02 01:00:32;;;;;;;2.30;1.00;;;16.60;99.90;;;;;;1030503;28;20033;-70
2022/10/02 01:01:17;;;;;;;4.73;1.43;;;16.60;99.90;;;;;;1031842;28;20030;-70
2022/10/02 01:02:04;;;;;;;2.72;1.50;;;16.60;99.90;;;;;;1031527;28;20037;-70
2022/10/02 01:02:53;;;;;;;3.10;1.55;;;16.60;99.90;;;;;;1034917;28;20030;-70
2022/10/02 01:03:33;;;;;;;5.38;1.60;;;16.60;99.90;;;;;;1038013;28;20477;-69
2022/10/02 01:04:10;;;;;;;6.00;1.65;;;16.60;99.90;;;;;;1038687;28;20022;-70
2022/10/02 01:04:40;;;;;;;2.97;1.55;;;16.60;99.90;;;;;;1039800;28;20045;-69
2022/10/02 01:05:12;;;;;;;3.20;1.40;;;16.60;99.90;;;;;;1036446;28;20021;-70
2022/10/02 01:05:43;;;;;;;6.00;1.60;;;16.60;99.90;;;;;;1034330;28;20727;-70
2022/10/02 01:06:13;;;;;;;5.00;1.60;;;16.60;99.90;;;;;;1036015;28;20755;-69
2022/10/02 01:06:44;;;;;;;4.20;1.50;;;16.50;99.90;;;;;;1038032;28;21085;-69
2022/10/02 01:07:15;;;;;;;4.30;1.50;;;16.60;99.90;;;;;;1034771;28;20084;-69
2022/10/02 01:07:49;;;;;;;3.37;1.40;;;16.60;99.90;;;;;;1034938;28;20500;-69
2022/10/02 01:08:20;;;;;;;5.45;1.70;;;16.60;99.90;;;;;;1037763;28;20160;-70
2022/10/02 01:08:51;;;;;;;3.05;1.30;;;16.50;99.90;;;;;;1034742;28;20026;-69
2022/10/02 01:09:23;;;;;;;3.97;1.50;;;16.60;99.90;;;;;;1038637;28;20018;-69
2022/10/02 01:09:54;;;;;;;4.95;1.70;;;16.60;99.90;;;;;;1039555;28;20101;-70
2022/10/02 01:10:26;;;;;;;4.13;1.37;;;16.60;99.90;;;;;;1038659;28;20028;-69
2022/10/02 01:10:57;;;;;;;6.00;1.55;;;16.60;99.90;;;;;;1038066;28;20072;-69
2022/10/02 01:11:29;;;;;;;4.10;1.73;;;16.60;99.90;;;;;;1034707;28;20032;-69
2022/10/02 01:12:00;;;;;;;6.10;2.15;;;16.50;99.90;;;;;;1036382;28;20013;-69
2022/10/02 01:12:31;;;;;;;6.10;1.85;;;16.60;99.90;;;;;;1034655;28;20025;-70
2022/10/02 01:13:01;;;;;;;5.90;1.83;;;16.60;99.90;;;;;;1034825;28;20096;-69
2022/10/02 01:13:32;;;;;;;5.23;2.03;;;16.60;99.90;;;;;;1035991;28;20380;-70
2022/10/02 01:14:04;;;;;;;5.07;1.98;;;16.60;99.90;;;;;;1038180;28;20017;-69
2022/10/02 01:14:38;;;;;;;3.95;1.55;;;16.60;99.90;;;;;;1038507;28;20055;-70
2022/10/02 01:15:17;;;;;;;5.72;2.00;;;16.60;99.90;;;;;;1033191;28;20106;-70
2022/10/02 01:15:53;;;;;;;4.55;1.85;;;16.60;99.90;;;;;;1033290;28;20025;-70
2022/10/02 01:16:24;;;;;;;2.60;1.60;;;16.60;99.90;;;;;;1031028;28;20031;-70
2022/10/02 01:16:55;;;;;;;7.10;1.83;;;16.60;99.90;;;;;;1036002;28;20017;-71
2022/10/02 01:17:32;;;;;;;6.37;1.57;;;16.60;99.90;;;;;;1034467;28;20092;-69
2022/10/02 01:18:05;;;;;;;4.90;1.67;;;16.60;99.90;;;;;;1031174;28;20074;-69
2022/10/02 01:18:35;;;;;;;4.72;1.67;;;16.60;99.90;;;;;;1038454;28;20021;-70
2022/10/02 01:19:37;;;;;;;2.93;1.33;;;16.60;99.90;;;;;;1034291;28;20029;-70
2022/10/02 01:20:16;;;;;;;3.95;1.52;;;16.60;99.90;;;;;;1023430;28;20031;-69
2022/10/02 01:20:54;;;;;;;4.65;1.50;;;16.60;99.90;;;;;;1033010;28;20041;-70
2022/10/02 01:21:40;;;;;;;5.20;1.52;;;16.60;99.90;;;;;;1034570;28;20018;-69
2022/10/02 01:22:37;;;;;;;5.53;1.73;;;16.60;99.90;;;;;;1037941;28;20109;-69
2022/10/02 01:23:39;;;;;;;3.67;1.55;;;16.60;99.90;;;;;;1032236;28;20469;-70
2022/10/02 01:24:26;;;;;;;3.50;1.25;;;16.60;99.90;;;;;;1034017;28;20049;-69
2022/10/02 01:25:00;;;;;;;4.78;1.60;;;16.60;99.90;;;;;;1034460;28;20475;-70
2022/10/02 01:25:31;;;;;;;2.50;1.10;;;16.50;99.90;;;;;;1037176;28;20014;-70
2022/10/02 01:26:02;;;;;;;4.10;1.50;;;16.50;99.90;;;;;;1034316;28;20022;-70
2022/10/02 01:26:33;;;;;;;5.93;1.57;;;16.60;99.90;;;;;;1034661;28;20105;-70
2022/10/02 01:27:03;;;;;;;4.37;1.60;;;16.50;99.90;;;;;;1037363;28;20038;-70
2022/10/02 01:27:35;;;;;;;3.23;1.60;;;16.50;99.90;;;;;;1035039;28;20018;-70
2022/10/02 01:28:05;;;;;;;4.75;1.48;;;16.50;99.90;;;;;;1038604;28;20017;-70
2022/10/02 01:28:36;;;;;;;3.37;1.73;;;16.50;99.90;;;;;;1041740;28;20014;-70
2022/10/02 01:29:07;;;;;;;5.90;1.90;;;16.50;99.90;;;;;;1040095;28;20022;-70
2022/10/02 01:29:37;;;;;;;5.87;1.90;;;16.50;99.90;;;;;;1038063;28;20060;-70
2022/10/02 01:30:16;;;;;;;6.23;2.10;;;16.50;99.90;;;;;;1040418;28;20026;-71
2022/10/02 01:30:50;;;;;;;4.75;1.92;;;16.50;99.90;;;;;;1036963;28;20022;-70
2022/10/02 01:31:23;;;;;;;4.38;1.67;;;16.50;99.90;;;;;;1037002;28;20033;-70
2022/10/02 01:31:55;;;;;;;6.40;2.38;;;16.50;99.90;;;;;;1036613;28;20014;-70
2022/10/02 01:32:27;;;;;;;5.70;2.10;;;16.50;99.90;;;;;;1035909;28;20009;-70
2022/10/02 01:33:00;;;;;;;6.63;2.90;;;16.50;99.90;;;;;;1034774;28;20389;-70
2022/10/02 01:33:31;;;;;;;6.80;2.75;;;16.50;99.90;;;;;;1036411;28;20150;-70
2022/10/02 01:34:03;;;;;;;4.60;2.27;;;16.50;99.90;;;;;;1035320;28;20129;-68
2022/10/02 01:34:33;;;;;;;6.75;2.65;;;16.50;99.90;;;;;;1034194;28;20343;-68
2022/10/02 01:35:05;;;;;;;4.70;2.00;;;16.50;99.90;;;;;;1034295;28;20014;-69
2022/10/02 01:35:38;;;;;;;4.50;2.42;;;16.50;99.90;;;;;;1035366;28;20014;-69
2022/10/02 01:36:10;;;;;;;6.65;2.25;;;16.50;99.90;;;;;;1034665;28;20026;-69
2022/10/02 01:36:40;;;;;;;5.93;2.28;;;16.50;99.90;;;;;;1036555;28;20105;-69
2022/10/02 01:37:12;;;;;;;6.23;2.27;;;16.50;99.90;;;;;;1035448;28;20017;-70
2022/10/02 01:37:43;;;;;;;7.70;2.10;;;16.40;99.90;;;;;;1038326;28;20041;-70
2022/10/02 01:38:18;;;;;;;3.78;2.05;;;16.50;99.90;;;;;;1039506;28;20410;-70
2022/10/02 01:38:50;;;;;;;5.85;2.40;;;16.50;99.90;;;;;;1038831;28;20538;-70
2022/10/02 01:39:22;;;;;;;5.72;2.30;;;16.40;99.90;;;;;;1037751;28;20081;-71
2022/10/02 01:39:52;;;;;;;4.55;2.13;;;16.40;99.90;;;;;;1035300;28;20033;-70
2022/10/02 01:40:29;;;;;;;6.03;1.60;;;16.50;99.90;;;;;;1035097;28;20045;-70
2022/10/02 01:41:00;;;;;;;4.07;1.70;;;16.50;99.90;;;;;;1031579;28;20641;-69
2022/10/02 01:41:37;;;;;;;5.27;2.00;;;16.40;99.90;;;;;;1035003;28;20493;-69
2022/10/02 01:42:07;;;;;;;8.35;2.42;;;16.40;99.90;;;;;;1036205;28;20104;-68
2022/10/02 01:42:39;;;;;;;6.90;2.10;;;16.40;99.90;;;;;;1038470;28;20060;-69
2022/10/02 01:43:23;;;;;;;6.15;1.88;;;16.40;99.90;;;;;;1039930;28;20389;-68
2022/10/02 01:44:00;;;;;;;7.32;2.45;;;16.50;99.90;;;;;;1035699;28;20029;-69
2022/10/02 01:44:31;;;;;;;5.07;1.70;;;16.50;99.90;;;;;;1038802;28;20029;-68
2022/10/02 01:45:07;;;;;;;6.13;2.35;;;16.50;99.90;;;;;;1039293;28;20017;-69
2022/10/02 01:45:59;;;;;;;3.95;1.75;;;16.50;99.90;;;;;;1037370;28;20017;-69
2022/10/02 01:46:48;;;;;;;7.78;2.08;;;16.50;99.90;;;;;;1034643;28;20480;-69
2022/10/02 01:47:45;;;;;;;5.30;2.00;;;16.50;99.90;;;;;;1031282;28;20019;-69
2022/10/02 01:48:37;;;;;;;4.22;1.90;;;16.50;99.90;;;;;;1028100;28;20031;-69
2022/10/02 01:49:08;;;;;;;6.85;2.30;;;16.50;99.90;;;;;;1035486;28;20006;-68
2022/10/02 01:49:51;;;;;;;7.57;2.63;;;16.50;99.90;;;;;;1037428;28;20018;-68
2022/10/02 01:50:50;;;;;;;5.72;1.83;;;16.50;99.90;;;;;;1034953;28;20052;-68
2022/10/02 01:51:32;;;;;;;5.20;1.92;;;16.50;99.90;;;;;;1033991;28;20014;-68
2022/10/02 01:52:14;;;;;;;8.02;2.40;;;16.50;99.90;;;;;;1032591;28;20022;-68
2022/10/02 01:52:58;;;;;;;6.53;2.42;;;16.50;99.90;;;;;;1038550;28;20392;-69
2022/10/02 01:53:43;;;;;;;5.53;1.75;;;16.60;99.90;;;;;;1038987;28;20048;-69
2022/10/02 01:54:28;;;;;;;6.93;2.35;;;16.50;99.90;;;;;;1036695;28;20025;-69
2022/10/02 01:55:17;;;;;;;4.20;2.08;;;16.50;99.90;;;;;;1036390;28;20188;-68
2022/10/02 01:56:17;;;;;;;5.50;2.42;;;16.60;99.90;;;;;;1036187;28;20735;-68
2022/10/02 01:56:54;;;;;;;5.65;2.10;;;16.50;99.90;;;;;;1035253;28;20049;-68
2022/10/02 01:57:40;;;;;;;8.82;2.42;;;16.50;99.90;;;;;;1032468;28;20108;-69
2022/10/02 01:59:07;;;;;;;5.72;2.83;;;16.50;99.90;;;;;;1034609;28;20020;-69
2022/10/02 01:59:58;;;;;;;6.95;2.20;;;16.50;99.90;;;;;;1035328;28;20536;-69
2022/10/02 02:00:59;;;;;;;7.60;2.85;;;16.50;99.90;;;;;;1032718;28;20449;-70
2022/10/02 02:02:05;;;;;;;6.13;1.92;;;16.50;99.90;;;;;;1034266;28;20119;-69
2022/10/02 02:03:01;;;;;;;5.72;2.58;;;16.50;99.90;;;;;;1031319;28;20604;-69
2022/10/02 02:04:01;;;;;;;9.10;3.20;;;16.50;99.90;;;;;;1033567;28;20060;-69
2022/10/02 02:04:58;;;;;;;4.97;2.38;;;16.50;99.90;;;;;;1028608;28;20589;-69
2022/10/02 02:05:52;;;;;;;;;;;16.50;99.90;;;;;;1030897;28;20039;-69
2022/10/02 02:07:02;;;;;;;7.57;2.90;;;16.50;99.90;;;;;;1031713;28;19922;-69
2022/10/02 02:07:49;;;;;;;8.35;2.50;;;16.50;99.90;;;;;;1034420;28;20037;-69
2022/10/02 02:08:43;;;;;;;5.97;2.55;;;16.50;99.90;;;;;;1032982;28;20073;-70
2022/10/02 02:09:32;;;;;;;9.77;2.75;;;16.50;99.90;;;;;;1037166;28;20113;-69
2022/10/02 02:10:43;;;;;;;6.82;2.75;;;16.50;99.90;;;;;;1037359;28;20053;-69
2022/10/02 02:11:20;;;;;;;6.63;2.78;;;16.50;99.90;;;;;;1033348;28;20022;-69
2022/10/02 02:11:57;;;;;;;10.32;3.03;;;16.50;99.90;;;;;;1036248;28;20037;-69
2022/10/02 02:12:59;;;;;;;11.10;3.20;;;16.50;99.90;;;;;;1034903;28;20065;-69
2022/10/02 02:13:43;;;;;;;7.55;2.72;;;16.50;99.90;;;;;;1033564;28;20053;-69
2022/10/02 02:14:32;;;;;;;5.05;2.55;;;16.50;99.90;;;;;;1034472;28;20010;-70
2022/10/02 02:15:12;;;;;;;5.82;2.05;;;16.50;99.90;;;;;;1035273;28;20606;-69
2022/10/02 02:15:59;;;;;;;6.75;2.70;;;16.50;99.90;;;;;;1042286;28;20526;-69
2022/10/02 02:16:44;;;;;;;9.93;3.00;;;16.50;99.90;;;;;;1035470;28;20536;-69
2022/10/02 02:17:23;;;;;;;6.32;2.65;;;16.50;99.90;;;;;;1035393;28;20014;-69
2022/10/02 02:18:01;;;;;;;;;;;16.50;99.90;;;;;;1035440;28;20393;-69
2022/10/02 02:19:22;;;;;;;7.13;2.72;;;16.50;99.90;;;;;;1035087;28;19905;-70
2022/10/02 02:20:07;;;;;;;6.90;2.17;;;16.50;99.90;;;;;;1034896;28;20030;-70
2022/10/02 02:20:49;;;;;;;7.32;3.00;;;16.50;99.90;;;;;;1036547;28;20101;-70
2022/10/02 02:21:36;;;;;;;6.78;2.47;;;16.50;99.90;;;;;;1030952;28;20038;-70
2022/10/02 02:22:16;;;;;;;9.10;2.58;;;16.50;99.90;;;;;;1032580;28;20042;-70
2022/10/02 02:22:51;;;;;;;8.48;2.25;;;16.50;99.90;;;;;;1030523;28;20018;-70
2022/10/02 02:23:29;;;;;;;6.75;3.05;;;16.50;99.90;;;;;;1035356;28;20076;-70
2022/10/02 02:24:04;;;;;;;5.88;2.38;;;16.50;99.90;;;;;;1035352;28;20442;-70
2022/10/02 02:24:48;;;;;;;6.95;2.65;;;16.50;99.90;;;;;;1032673;28;20450;-70
2022/10/02 02:25:24;;;;;;;5.70;2.20;;;16.60;99.90;;;;;;1034919;28;20506;-70
2022/10/02 02:25:59;;;;;;;6.13;2.58;;;16.50;99.90;;;;;;1030828;28;20034;-70
2022/10/02 02:26:31;;;;;;;5.95;2.55;;;16.60;99.90;;;;;;1035019;28;20091;-70
2022/10/02 02:27:04;;;;;;;6.45;2.70;;;16.60;99.90;;;;;;1034943;28;20366;-70
2022/10/02 02:27:40;;;;;;;8.85;2.80;;;16.60;99.90;;;;;;1037184;28;20022;-70
2022/10/02 02:28:14;;;;;;;8.55;3.20;;;16.50;99.90;;;;;;1039554;28;20472;-70
2022/10/02 02:28:50;;;;;;;9.35;2.25;;;16.50;99.90;;;;;;1032200;28;20022;-70
2022/10/02 02:29:23;;;;;;;6.95;2.75;;;16.60;99.90;;;;;;1033666;28;20033;-70
2022/10/02 02:29:59;;;;;;;9.15;2.58;;;16.50;99.90;;;;;;1034919;28;20014;-70
2022/10/02 02:30:31;;;;;;;6.00;2.60;;;16.60;99.90;;;;;;1039401;28;20022;-70
2022/10/02 02:31:04;;;;;;;8.88;2.45;;;16.50;99.90;;;;;;1037958;28;20045;-70
2022/10/02 02:31:41;;;;;;;8.70;2.42;;;16.60;99.90;;;;;;1031655;28;20022;-70
2022/10/02 02:32:16;;;;;;;8.10;2.47;;;16.60;99.90;;;;;;1035012;28;20010;-70
2022/10/02 02:33:00;;;;;;;5.45;2.28;;;16.50;99.90;;;;;;1038903;28;20029;-70
2022/10/02 02:33:44;;;;;;;5.07;2.75;;;16.50;99.90;;;;;;1033306;28;20061;-70
2022/10/02 02:34:22;;;;;;;9.55;2.63;;;16.50;99.90;;;;;;1029050;28;20136;-70
2022/10/02 02:35:03;;;;;;;7.65;2.30;;;16.50;99.90;;;;;;1034740;28;20083;-70
2022/10/02 02:35:40;;;;;;;7.85;2.85;;;16.50;99.90;;;;;;1034106;28;20030;-70
2022/10/02 02:36:16;;;;;;;8.27;2.47;;;16.50;99.90;;;;;;1034682;28;20022;-70
2022/10/02 02:36:53;;;;;;;8.65;2.78;;;16.50;99.90;;;;;;1036074;28;20140;-70
2022/10/02 02:37:28;;;;;;;9.02;3.08;;;16.50;99.90;;;;;;1035077;28;20445;-70
2022/10/02 02:38:21;;;;;;;6.55;2.40;;;16.50;99.90;;;;;;1033015;28;20036;-70
2022/10/02 02:39:03;;;;;;;5.93;1.92;;;16.50;99.90;;;;;;1035063;28;20468;-70
2022/10/02 02:39:44;;;;;;;6.55;2.10;;;16.50;99.90;;;;;;1037383;28;20025;-70
2022/10/02 02:40:21;;;;;;;8.52;2.42;;;16.50;99.90;;;;;;1034673;28;20084;-70
2022/10/02 02:40:55;;;;;;;4.75;2.50;;;16.50;99.90;;;;;;1035702;28;20030;-70
2022/10/02 02:41:29;;;;;;;10.40;2.90;;;16.50;99.90;;;;;;1036191;28;20036;-70
2022/10/02 02:42:03;;;;;;;8.38;2.47;;;16.50;99.90;;;;;;1034172;28;20050;-70
2022/10/02 02:42:42;;;;;;;6.38;2.22;;;16.50;99.90;;;;;;1035967;28;20113;-71
2022/10/02 02:43:16;;;;;;;;;;;16.50;99.90;;;;;;1039628;28;20053;-72
2022/10/02 02:43:50;;;;;;;9.20;2.80;;;16.50;99.90;;;;;;1039034;28;19951;-70
2022/10/02 02:44:32;;;;;;;9.70;3.10;;;16.50;99.90;;;;;;1034653;28;20022;-70
2022/10/02 02:45:11;;;;;;;7.43;2.45;;;16.50;99.90;;;;;;1032798;28;20532;-70
2022/10/02 02:45:53;;;;;;;6.10;2.33;;;16.50;99.90;;;;;;1035224;28;20026;-70
2022/10/02 02:47:02;;;;;;;10.18;2.88;;;16.50;99.90;;;;;;1036360;28;20164;-70
2022/10/02 02:47:44;;;;;;;9.82;2.58;;;16.50;99.90;;;;;;1036375;28;20034;-70
2022/10/02 02:48:24;;;;;;;6.10;2.47;;;16.50;99.90;;;;;;1031948;28;20022;-71
2022/10/02 02:49:04;;;;;;;6.40;2.08;;;16.50;99.90;;;;;;1035340;28;20663;-70
2022/10/02 02:49:41;;;;;;;9.57;2.55;;;16.50;99.90;;;;;;1031212;28;20018;-70
2022/10/02 02:50:22;;;;;;;7.60;2.85;;;16.50;99.90;;;;;;1031469;28;20184;-71
2022/10/02 02:51:01;;;;;;;3.58;1.80;;;16.50;99.90;;;;;;1033532;28;20073;-70
2022/10/02 02:51:38;;;;;;;6.03;2.33;;;16.50;99.90;;;;;;1035455;28;20109;-70
2022/10/02 02:52:14;;;;;;;6.35;2.08;;;16.50;99.90;;;;;;1035115;28;20018;-70
2022/10/02 02:52:54;;;;;;;7.30;2.17;;;16.50;99.90;;;;;;1039286;28;20697;-70
2022/10/02 02:53:37;;;;;;;7.30;2.85;;;16.50;99.90;;;;;;1039198;28;20019;-70
2022/10/02 02:54:16;;;;;;;4.60;2.13;;;16.50;99.90;;;;;;1039266;28;20659;-70
2022/10/02 02:55:07;;;;;;;5.15;2.00;;;16.50;99.90;;;;;;1034116;28;20031;-70
2022/10/02 02:56:02;;;;;;;4.72;2.28;;;16.50;99.90;;;;;;1034275;28;20041;-70
2022/10/02 02:56:33;;;;;;;6.72;2.60;;;16.50;99.90;;;;;;1029426;28;20027;-70
2022/10/02 02:57:06;;;;;;;7.60;2.45;;;16.50;99.90;;;;;;1035093;28;20022;-71
2022/10/02 02:57:51;;;;;;;7.07;2.70;;;16.50;99.90;;;;;;1035389;28;20014;-70
2022/10/02 02:58:33;;;;;;;7.13;2.30;;;16.50;99.90;;;;;;1035494;28;20100;-71
2022/10/02 02:59:10;;;;;;;5.07;2.22;;;16.50;99.90;;;;;;1035085;28;20342;-70
2022/10/02 02:59:45;;;;;;;8.63;2.67;;;16.50;99.90;;;;;;1035699;28;20040;-70
2022/10/02 03:00:18;;;;;;;7.35;3.05;;;16.50;99.90;;;;;;1038001;28;20010;-70
2022/10/02 03:00:49;;;;;;;5.45;2.22;;;16.50;99.90;;;;;;1034737;28;20508;-70
2022/10/02 03:01:20;;;;;;;5.57;2.40;;;16.60;99.90;;;;;;1034648;28;20034;-70
2022/10/02 03:01:50;;;;;;;6.43;2.63;;;16.50;99.90;;;;;;1035041;28;20349;-70
2022/10/02 03:02:21;;;;;;;8.83;2.37;;;16.50;99.90;;;;;;1035135;28;20026;-70
2022/10/02 03:02:53;;;;;;;5.40;2.10;;;16.60;99.90;;;;;;1036133;28;20104;-71
2022/10/02 03:03:24;;;;;;;7.05;2.45;;;16.50;99.90;;;;;;1035504;28;20021;-70
2022/10/02 03:03:55;;;;;;;8.25;2.53;;;16.50;99.90;;;;;;1035271;28;20121;-68
2022/10/02 03:04:25;;;;;;;8.20;2.77;;;16.50;99.90;;;;;;1035305;28;20078;-70
2022/10/02 03:04:56;;;;;;;6.33;2.87;;;16.50;99.90;;;;;;1034875;28;20501;-71
2022/10/02 03:05:28;;;;;;;7.33;2.23;;;16.50;99.90;;;;;;1034630;28;20539;-70
2022/10/02 03:06:25;;;;;;;6.93;2.10;;;16.50;99.90;;;;;;1035274;28;20073;-70
2022/10/02 03:06:58;;;;;;;;;;;16.50;99.90;;;;;;1030015;28;20026;-71
2022/10/02 03:07:28;;;;;;;6.65;2.42;;;16.50;99.90;;;;;;1036587;28;19905;-70
2022/10/02 03:08:03;;;;;;;7.83;3.03;;;16.50;99.90;;;;;;1035867;28;20129;-70
2022/10/02 03:08:36;;;;;;;7.10;2.15;;;16.50;99.90;;;;;;1034836;28;20583;-70
2022/10/02 03:09:18;;;;;;;5.50;2.33;;;16.50;99.90;;;;;;1036229;28;20518;-70
2022/10/02 03:10:15;;;;;;;11.35;3.22;;;16.50;99.90;;;;;;1035638;28;20018;-70
2022/10/02 03:11:12;;;;;;;5.72;2.25;;;16.50;99.90;;;;;;1039578;28;20029;-70
2022/10/02 03:11:50;;;;;;;8.05;2.85;;;16.50;99.90;;;;;;1037553;28;20028;-70
2022/10/02 03:12:39;;;;;;;5.28;2.05;;;16.50;99.90;;;;;;1035947;28;20637;-70
2022/10/02 03:13:26;;;;;;;6.80;2.60;;;16.50;99.90;;;;;;1034193;28;20085;-70
2022/10/02 03:14:06;;;;;;;5.68;2.00;;;16.50;99.90;;;;;;1032001;28;20096;-70
2022/10/02 03:15:01;;;;;;;8.82;2.42;;;16.50;99.90;;;;;;1036251;28;20071;-70
2022/10/02 03:15:54;;;;;;;7.30;2.92;;;16.50;99.90;;;;;;1034221;28;20733;-70
2022/10/02 03:16:47;;;;;;;9.40;2.67;;;16.50;99.90;;;;;;1035515;28;20074;-70
2022/10/02 03:17:29;;;;;;;8.63;2.85;;;16.40;99.90;;;;;;1032095;28;20038;-70
2022/10/02 03:18:31;;;;;;;8.13;2.85;;;16.40;99.90;;;;;;1035246;28;20124;-70
2022/10/02 03:19:16;;;;;;;6.65;2.53;;;16.40;99.90;;;;;;1032504;28;20057;-70
2022/10/02 03:20:15;;;;;;;8.80;2.95;;;16.40;99.90;;;;;;1031485;28;20073;-70
2022/10/02 03:21:07;;;;;;;8.75;2.45;;;16.40;99.90;;;;;;1035785;28;20029;-70
2022/10/02 03:21:58;;;;;;;4.43;2.25;;;16.40;99.90;;;;;;1035143;28;20030;-70
2022/10/02 03:22:35;;;;;;;6.82;2.17;;;16.40;99.90;;;;;;1033221;28;20041;-70
2022/10/02 03:23:26;;;;;;;7.32;2.58;;;16.40;99.90;;;;;;1035080;28;20029;-69
2022/10/02 03:24:17;;;;;;;8.80;2.38;;;16.40;99.90;;;;;;1030977;28;20035;-70
2022/10/02 03:25:20;;;;;;;6.88;2.65;;;16.40;99.90;;;;;;1037716;28;20009;-69
2022/10/02 03:25:59;;;;;;;6.60;2.53;;;16.40;99.90;;;;;;1022401;29;20031;-70
2022/10/02 03:26:37;;;;;;;7.95;2.35;;;16.40;99.90;;;;;;1029543;28;20419;-70
2022/10/02 03:27:17;;;;;;;6.97;3.17;;;16.40;99.90;;;;;;1040202;28;20233;-70
2022/10/02 03:28:06;;;;;;;11.73;3.03;;;16.40;99.90;;;;;;1033207;28;20488;-70
2022/10/02 03:28:56;;;;;;;6.78;2.33;;;16.40;99.90;;;;;;1036503;28;20044;-70
2022/10/02 03:29:33;;;;;;;4.95;2.00;;;16.40;99.90;;;;;;1032545;28;20003;-70
2022/10/02 03:30:08;;;;;;;4.28;1.90;;;16.40;99.90;;;;;;1036610;28;20098;-70
2022/10/02 03:30:40;;;;;;;8.43;2.83;;;16.40;99.90;;;;;;1034590;28;20018;-70
2022/10/02 03:31:13;;;;;;;4.85;1.80;;;16.40;99.90;;;;;;1036603;28;20065;-70
2022/10/02 03:31:44;;;;;;;5.70;2.17;;;16.40;99.90;;;;;;1035846;28;20628;-70
2022/10/02 03:32:17;;;;;;;8.40;2.55;;;16.40;99.90;;;;;;1034604;28;20064;-70
2022/10/02 03:32:55;;;;;;;6.10;2.28;;;16.40;99.90;;;;;;1034708;28;20121;-70
2022/10/02 03:33:26;;;;;;;6.80;2.55;;;16.40;99.90;;;;;;1035974;28;20076;-70
2022/10/02 03:33:59;;;;;;;6.97;2.35;;;16.40;99.90;;;;;;1031328;28;20105;-70
2022/10/02 03:34:32;;;;;;;7.80;2.28;;;16.40;99.90;;;;;;1038562;28;20128;-70
2022/10/02 03:35:06;;;;;;;7.85;2.67;;;16.40;99.90;;;;;;1035977;28;20020;-70
2022/10/02 03:35:37;;;;;;;6.05;2.53;;;16.40;99.90;;;;;;1034802;28;20481;-70
2022/10/02 03:36:10;;;;;;;6.38;2.38;;;16.40;99.90;;;;;;1036638;28;20100;-70